»·PEaware :: N448AF KTOA-KVNY

N448AF :: KTOA-KVNY

FLIGHT INFORMATION

Flight Status: Arrived
Operator: Privately registered:
United States
More flights under this callsign
Pilot: Joseph G. (21201)
Aircraft: CESSNA 172 SKYHAWK
(C172)
More flights by this aircraft type
Origin: KTOA Zamperini
United States
Destination: KVNY Van Nuys
United States
More flights between these airports :: More routes between these airports
Route: +SLI V23 POPPR SMO125R SMO SMO317R CANOG
File this flight plan on PilotEdge
Remarks: SCENARIO 1
Altitude:
(Current/Filed)
4,000ft
Speed:
(Current/Filed)
115kts
Departed: 23-Dec-19 10:08 AM
Arrived: 23-Dec-19 10:39 AM
Distance/Time
Traveled:
25nm/0:31
Distance/Time
To Go:
Arrived

Flight Plot

Page will automatically refresh every two minutes.

Flight plan parsing failed; only flown route is shown


Map Options




Map Legend


Flown Route
Filed Route
Departure Airport
Arrival Airport
Navaid (VOR, NDB)
Fix

Horizontal Profiles

Position Reports

Time Latitude Longitude Heading Altitude Ground
Speed
23-Dec-19 09:54 33.801601 -118.341420 218 105ft 0kts
23-Dec-19 09:55 33.801601 -118.341420 218 105ft 0kts
23-Dec-19 09:56 33.801601 -118.341420 218 105ft 0kts
23-Dec-19 09:57 33.801601 -118.341420 218 105ft 0kts
23-Dec-19 09:58 33.801601 -118.341420 218 105ft 0kts
23-Dec-19 09:59 33.801601 -118.341420 218 105ft 0kts
23-Dec-19 10:00 33.801601 -118.341420 218 105ft 0kts
23-Dec-19 10:01 33.801508 -118.341283 48 105ft 8kts
23-Dec-19 10:02 33.803689 -118.343058 308 100ft 15kts
23-Dec-19 10:03 33.804398 -118.344442 93 98ft 0kts
23-Dec-19 10:04 33.804398 -118.344442 93 98ft 0kts
23-Dec-19 10:05 33.804398 -118.344442 93 98ft 0kts
23-Dec-19 10:06 33.804858 -118.344424 48 96ft 0kts
23-Dec-19 10:07 33.800496 -118.336618 130 206ft 78kts
23-Dec-19 10:08 33.787420 -118.315822 127 1008ft 77kts
23-Dec-19 10:09 33.774717 -118.295465 125 1809ft 67kts
23-Dec-19 10:10 33.766557 -118.284733 127 2221ft 70kts
23-Dec-19 10:11 33.752914 -118.268545 128 2916ft 68kts
23-Dec-19 10:12 33.742178 -118.251127 94 3528ft 65kts
23-Dec-19 10:13 33.742653 -118.228502 92 3999ft 76kts
23-Dec-19 10:14 33.743577 -118.199400 90 4001ft 90kts
23-Dec-19 10:15 33.744395 -118.169083 90 4002ft 89kts
23-Dec-19 10:16 33.756145 -118.148067 349 4009ft 111kts
23-Dec-19 10:17 33.776129 -118.179004 306 4010ft 121kts
23-Dec-19 10:18 33.795770 -118.212389 308 4010ft 121kts
23-Dec-19 10:19 33.815997 -118.245334 309 4009ft 121kts
23-Dec-19 10:20 33.836290 -118.278089 309 4010ft 120kts
23-Dec-19 10:21 33.858343 -118.308611 317 4010ft 120kts
23-Dec-19 10:22 33.882773 -118.336562 323 4010ft 119kts
23-Dec-19 10:23 33.908717 -118.362718 326 4010ft 119kts
23-Dec-19 10:24 33.935388 -118.387624 329 4028ft 124kts
23-Dec-19 10:25 33.963693 -118.413330 326 4002ft 127kts
23-Dec-19 10:26 33.991061 -118.438693 327 4010ft 119kts
23-Dec-19 10:27 34.017533 -118.463327 328 4010ft 118kts
23-Dec-19 10:28 34.046982 -118.480962 341 4009ft 116kts
23-Dec-19 10:29 34.076577 -118.497325 341 4002ft 115kts
23-Dec-19 10:30 34.105969 -118.512843 350 4005ft 113kts
23-Dec-19 10:31 34.136439 -118.522601 356 3673ft 112kts
23-Dec-19 10:32 34.166722 -118.524814 8 2961ft 101kts
23-Dec-19 10:33 34.195497 -118.522223 1 2023ft 106kts
23-Dec-19 10:34 34.224732 -118.522326 357 1686ft 99kts
23-Dec-19 10:35 34.244110 -118.514973 85 1504ft 79kts
23-Dec-19 10:36 34.238863 -118.492957 163 1214ft 75kts
23-Dec-19 10:37 34.218384 -118.491177 175 938ft 68kts
23-Dec-19 10:38 34.206803 -118.490324 236 806ft 2kts
23-Dec-19 10:39 34.206557 -118.493026 279 806ft 6kts
23-Dec-19 10:40 34.205424 -118.493060 174 806ft 0kts
23-Dec-19 10:41 34.205424 -118.493060 174 806ft 0kts
23-Dec-19 10:42 34.205424 -118.493060 174 806ft 0kts
23-Dec-19 10:43 34.205424 -118.493060 174 806ft 0kts
23-Dec-19 10:44 34.205424 -118.493060 174 806ft 0kts

Navigation Log

Ident Type
Flight plan parsing failed, navigation log unavailable